sensor_id;sensor_type;location;lat;lon;timestamp;pressure;altitude;pressure_sealevel;temperature;humidity
79028;BME280;68427;48.476;19.102;2023-08-12T00:01:48;98253.66;;;11.19;82.60
79028;BME280;68427;48.476;19.102;2023-08-12T00:04:14;98251.56;;;11.14;83.57
79028;BME280;68427;48.476;19.102;2023-08-12T00:06:40;98266.22;;;11.09;82.87
79028;BME280;68427;48.476;19.102;2023-08-12T00:09:06;98264.28;;;11.02;83.17
79028;BME280;68427;48.476;19.102;2023-08-12T00:11:34;98255.97;;;10.99;83.55
79028;BME280;68427;48.476;19.102;2023-08-12T00:14:00;98261.38;;;10.97;84.16
79028;BME280;68427;48.476;19.102;2023-08-12T00:16:26;98258.94;;;10.96;84.01
79028;BME280;68427;48.476;19.102;2023-08-12T00:18:51;98265.19;;;10.95;84.22
79028;BME280;68427;48.476;19.102;2023-08-12T00:21:17;98262.09;;;10.91;84.51
79028;BME280;68427;48.476;19.102;2023-08-12T00:23:43;98254.41;;;10.90;85.33
79028;BME280;68427;48.476;19.102;2023-08-12T00:26:10;98256.22;;;10.89;84.91
79028;BME280;68427;48.476;19.102;2023-08-12T00:28:37;98250.16;;;10.89;84.86
79028;BME280;68427;48.476;19.102;2023-08-12T00:31:03;98254.56;;;10.88;84.99
79028;BME280;68427;48.476;19.102;2023-08-12T00:33:29;98250.16;;;10.89;84.73
79028;BME280;68427;48.476;19.102;2023-08-12T00:35:55;98246.09;;;10.86;84.79
79028;BME280;68427;48.476;19.102;2023-08-12T00:38:20;98243.00;;;10.82;85.15
79028;BME280;68427;48.476;19.102;2023-08-12T00:40:46;98245.81;;;10.81;85.22
79028;BME280;68427;48.476;19.102;2023-08-12T00:43:12;98245.53;;;10.76;84.41
79028;BME280;68427;48.476;19.102;2023-08-12T00:45:40;98233.78;;;10.72;85.18
79028;BME280;68427;48.476;19.102;2023-08-12T00:48:06;98240.34;;;10.68;84.92
79028;BME280;68427;48.476;19.102;2023-08-12T00:50:33;98234.00;;;10.62;84.50
79028;BME280;68427;48.476;19.102;2023-08-12T00:52:59;98242.03;;;10.60;85.15
79028;BME280;68427;48.476;19.102;2023-08-12T00:55:25;98235.19;;;10.59;85.56
79028;BME280;68427;48.476;19.102;2023-08-12T00:57:51;98235.03;;;10.61;85.53
79028;BME280;68427;48.476;19.102;2023-08-12T01:00:18;98236.00;;;10.60;85.12
79028;BME280;68427;48.476;19.102;2023-08-12T01:02:48;98234.38;;;10.59;85.61
79028;BME280;68427;48.476;19.102;2023-08-12T01:05:14;98235.81;;;10.62;84.92
79028;BME280;68427;48.476;19.102;2023-08-12T01:07:41;98237.00;;;10.59;84.70
79028;BME280;68427;48.476;19.102;2023-08-12T01:10:08;98234.91;;;10.54;85.36
79028;BME280;68427;48.476;19.102;2023-08-12T01:12:37;98230.81;;;10.52;86.34
79028;BME280;68427;48.476;19.102;2023-08-12T01:15:08;98231.00;;;10.50;86.13
79028;BME280;68427;48.476;19.102;2023-08-12T01:17:37;98233.44;;;10.52;85.28
79028;BME280;68427;48.476;19.102;2023-08-12T01:20:06;98226.22;;;10.54;85.59
79028;BME280;68427;48.476;19.102;2023-08-12T01:22:38;98240.78;;;10.56;84.35
79028;BME280;68427;48.476;19.102;2023-08-12T01:25:08;98238.69;;;10.52;85.03
79028;BME280;68427;48.476;19.102;2023-08-12T01:27:35;98242.00;;;10.46;85.19
79028;BME280;68427;48.476;19.102;2023-08-12T01:30:02;98244.31;;;10.41;85.43
79028;BME280;68427;48.476;19.102;2023-08-12T01:32:36;98247.28;;;10.37;85.10
79028;BME280;68427;48.476;19.102;2023-08-12T01:35:07;98231.13;;;10.34;85.16
79028;BME280;68427;48.476;19.102;2023-08-12T01:37:35;98237.53;;;10.31;85.54
79028;BME280;68427;48.476;19.102;2023-08-12T01:40:04;98229.84;;;10.30;85.40
79028;BME280;68427;48.476;19.102;2023-08-12T01:42:32;98249.16;;;10.29;85.32
79028;BME280;68427;48.476;19.102;2023-08-12T01:44:59;98235.56;;;10.25;85.61
79028;BME280;68427;48.476;19.102;2023-08-12T01:47:26;98238.38;;;10.24;85.92
79028;BME280;68427;48.476;19.102;2023-08-12T01:49:52;98243.59;;;10.24;85.67
79028;BME280;68427;48.476;19.102;2023-08-12T01:52:18;98237.06;;;10.20;85.21
79028;BME280;68427;48.476;19.102;2023-08-12T01:54:43;98244.47;;;10.16;85.09
79028;BME280;68427;48.476;19.102;2023-08-12T01:57:09;98239.41;;;10.14;85.36
79028;BME280;68427;48.476;19.102;2023-08-12T01:59:36;98235.69;;;10.09;85.06
79028;BME280;68427;48.476;19.102;2023-08-12T02:02:02;98246.81;;;10.11;85.40
79028;BME280;68427;48.476;19.102;2023-08-12T02:04:28;98245.34;;;10.08;84.84
79028;BME280;68427;48.476;19.102;2023-08-12T02:06:54;98239.63;;;10.05;85.97
79028;BME280;68427;48.476;19.102;2023-08-12T02:09:20;98241.28;;;10.06;85.72
79028;BME280;68427;48.476;19.102;2023-08-12T02:11:46;98245.84;;;10.04;85.48
79028;BME280;68427;48.476;19.102;2023-08-12T02:14:12;98242.59;;;10.02;85.22
79028;BME280;68427;48.476;19.102;2023-08-12T02:16:39;98243.75;;;9.99;85.76
79028;BME280;68427;48.476;19.102;2023-08-12T02:19:05;98245.72;;;9.97;85.97
79028;BME280;68427;48.476;19.102;2023-08-12T02:21:31;98252.75;;;9.97;85.71
79028;BME280;68427;48.476;19.102;2023-08-12T02:23:57;98240.19;;;9.92;86.16
79028;BME280;68427;48.476;19.102;2023-08-12T02:26:22;98237.72;;;9.90;85.63
79028;BME280;68427;48.476;19.102;2023-08-12T02:28:48;98237.13;;;9.88;85.31
79028;BME280;68427;48.476;19.102;2023-08-12T02:31:15;98239.25;;;9.85;85.90
79028;BME280;68427;48.476;19.102;2023-08-12T02:33:42;98255.13;;;9.83;85.70
79028;BME280;68427;48.476;19.102;2023-08-12T02:36:08;98247.78;;;9.79;86.32
79028;BME280;68427;48.476;19.102;2023-08-12T02:38:33;98254.00;;;9.78;86.04
79028;BME280;68427;48.476;19.102;2023-08-12T02:40:59;98246.44;;;9.83;86.05
79028;BME280;68427;48.476;19.102;2023-08-12T02:43:25;98249.53;;;9.86;85.57
79028;BME280;68427;48.476;19.102;2023-08-12T02:45:51;98257.56;;;9.85;85.16
79028;BME280;68427;48.476;19.102;2023-08-12T02:48:16;98245.63;;;9.82;85.19
79028;BME280;68427;48.476;19.102;2023-08-12T02:50:43;98253.38;;;9.76;85.72
79028;BME280;68427;48.476;19.102;2023-08-12T02:53:09;98248.63;;;9.71;85.98
79028;BME280;68427;48.476;19.102;2023-08-12T02:55:35;98246.34;;;9.68;85.93
79028;BME280;68427;48.476;19.102;2023-08-12T02:58:03;98248.16;;;9.67;85.72
79028;BME280;68427;48.476;19.102;2023-08-12T03:00:29;98248.50;;;9.64;85.50
79028;BME280;68427;48.476;19.102;2023-08-12T03:02:55;98253.06;;;9.62;85.87
79028;BME280;68427;48.476;19.102;2023-08-12T03:05:21;98258.97;;;9.64;85.65
79028;BME280;68427;48.476;19.102;2023-08-12T03:07:48;98258.50;;;9.61;85.51
79028;BME280;68427;48.476;19.102;2023-08-12T03:10:14;98259.16;;;9.55;85.31
79028;BME280;68427;48.476;19.102;2023-08-12T03:12:40;98264.88;;;9.50;85.92
79028;BME280;68427;48.476;19.102;2023-08-12T03:15:07;98263.91;;;9.51;86.54
79028;BME280;68427;48.476;19.102;2023-08-12T03:17:33;98262.75;;;9.54;86.60
79028;BME280;68427;48.476;19.102;2023-08-12T03:19:59;98271.25;;;9.56;86.08
79028;BME280;68427;48.476;19.102;2023-08-12T03:22:24;98265.19;;;9.55;86.33
79028;BME280;68427;48.476;19.102;2023-08-12T03:24:51;98267.34;;;9.51;84.87
79028;BME280;68427;48.476;19.102;2023-08-12T03:27:17;98264.22;;;9.48;85.29
79028;BME280;68427;48.476;19.102;2023-08-12T03:29:43;98271.78;;;9.43;84.62
79028;BME280;68427;48.476;19.102;2023-08-12T03:32:08;98273.44;;;9.36;85.73
79028;BME280;68427;48.476;19.102;2023-08-12T03:34:34;98272.28;;;9.30;85.75
79028;BME280;68427;48.476;19.102;2023-08-12T03:37:00;98275.44;;;9.25;85.68
79028;BME280;68427;48.476;19.102;2023-08-12T03:39:25;98291.28;;;9.24;86.61
79028;BME280;68427;48.476;19.102;2023-08-12T03:41:52;98269.56;;;9.23;87.27
79028;BME280;68427;48.476;19.102;2023-08-12T03:44:18;98285.53;;;9.20;87.29
79028;BME280;68427;48.476;19.102;2023-08-12T03:46:44;98280.16;;;9.22;87.87
79028;BME280;68427;48.476;19.102;2023-08-12T03:49:10;98279.81;;;9.25;88.32
79028;BME280;68427;48.476;19.102;2023-08-12T03:51:35;98285.88;;;9.25;86.92
79028;BME280;68427;48.476;19.102;2023-08-12T03:54:01;98290.13;;;9.26;87.40
79028;BME280;68427;48.476;19.102;2023-08-12T03:56:27;98278.69;;;9.27;87.69
79028;BME280;68427;48.476;19.102;2023-08-12T03:58:54;98280.63;;;9.34;87.02
79028;BME280;68427;48.476;19.102;2023-08-12T04:01:20;98290.09;;;9.35;86.58
79028;BME280;68427;48.476;19.102;2023-08-12T04:03:45;98285.69;;;9.35;86.24
79028;BME280;68427;48.476;19.102;2023-08-12T04:06:11;98290.91;;;9.35;86.39
79028;BME280;68427;48.476;19.102;2023-08-12T04:08:37;98295.16;;;9.36;85.85
79028;BME280;68427;48.476;19.102;2023-08-12T04:11:02;98291.56;;;9.37;86.84
79028;BME280;68427;48.476;19.102;2023-08-12T04:13:28;98288.59;;;9.40;87.09
79028;BME280;68427;48.476;19.102;2023-08-12T04:15:55;98289.09;;;9.44;87.39
79028;BME280;68427;48.476;19.102;2023-08-12T04:18:21;98288.09;;;9.45;87.56
79028;BME280;68427;48.476;19.102;2023-08-12T04:20:49;98288.41;;;9.50;87.62
79028;BME280;68427;48.476;19.102;2023-08-12T04:23:15;98285.31;;;9.55;87.52
79028;BME280;68427;48.476;19.102;2023-08-12T04:25:43;98283.34;;;9.57;87.56
79028;BME280;68427;48.476;19.102;2023-08-12T04:28:08;98291.34;;;9.63;88.34
79028;BME280;68427;48.476;19.102;2023-08-12T04:30:35;98286.91;;;9.64;86.64
79028;BME280;68427;48.476;19.102;2023-08-12T04:33:02;98283.66;;;9.62;86.94
79028;BME280;68427;48.476;19.102;2023-08-12T04:35:31;98286.72;;;9.65;87.13
79028;BME280;68427;48.476;19.102;2023-08-12T04:37:56;98286.88;;;9.72;87.39
79028;BME280;68427;48.476;19.102;2023-08-12T04:40:22;98288.19;;;9.76;87.39
79028;BME280;68427;48.476;19.102;2023-08-12T04:42:48;98289.47;;;9.80;87.16
79028;BME280;68427;48.476;19.102;2023-08-12T04:45:14;98300.56;;;9.82;86.96
79028;BME280;68427;48.476;19.102;2023-08-12T04:47:39;98290.41;;;9.87;87.40
79028;BME280;68427;48.476;19.102;2023-08-12T04:50:07;98292.97;;;9.95;88.07
79028;BME280;68427;48.476;19.102;2023-08-12T04:52:33;98283.66;;;10.01;87.84
79028;BME280;68427;48.476;19.102;2023-08-12T04:54:59;98298.97;;;10.12;86.91
79028;BME280;68427;48.476;19.102;2023-08-12T04:57:25;98293.88;;;10.19;87.54
79028;BME280;68427;48.476;19.102;2023-08-12T04:59:51;98285.81;;;10.29;86.50
79028;BME280;68427;48.476;19.102;2023-08-12T05:02:16;98282.16;;;10.38;87.50
79028;BME280;68427;48.476;19.102;2023-08-12T05:04:47;98290.63;;;10.48;87.43
79028;BME280;68427;48.476;19.102;2023-08-12T05:07:14;98286.28;;;10.55;86.38
79028;BME280;68427;48.476;19.102;2023-08-12T05:09:40;98287.22;;;10.63;87.12
79028;BME280;68427;48.476;19.102;2023-08-12T05:12:06;98282.75;;;10.71;87.18
79028;BME280;68427;48.476;19.102;2023-08-12T05:14:32;98285.94;;;10.81;87.79
79028;BME280;68427;48.476;19.102;2023-08-12T05:16:58;98288.31;;;10.91;87.26
79028;BME280;68427;48.476;19.102;2023-08-12T05:19:23;98290.84;;;10.99;87.61
79028;BME280;68427;48.476;19.102;2023-08-12T05:21:49;98297.09;;;11.13;87.51
79028;BME280;68427;48.476;19.102;2023-08-12T05:24:16;98295.34;;;11.29;87.22
79028;BME280;68427;48.476;19.102;2023-08-12T05:26:42;98287.56;;;11.50;86.39
79028;BME280;68427;48.476;19.102;2023-08-12T05:29:08;98290.09;;;11.73;85.85
79028;BME280;68427;48.476;19.102;2023-08-12T05:31:33;98288.63;;;12.00;85.64
79028;BME280;68427;48.476;19.102;2023-08-12T05:33:59;98298.69;;;12.33;83.88
79028;BME280;68427;48.476;19.102;2023-08-12T05:36:25;98288.25;;;12.61;83.00
79028;BME280;68427;48.476;19.102;2023-08-12T05:38:51;98289.75;;;12.92;82.59
79028;BME280;68427;48.476;19.102;2023-08-12T05:41:18;98285.41;;;13.27;79.80
79028;BME280;68427;48.476;19.102;2023-08-12T05:43:43;98288.22;;;13.60;79.00
79028;BME280;68427;48.476;19.102;2023-08-12T05:46:09;98291.81;;;13.94;77.56
79028;BME280;68427;48.476;19.102;2023-08-12T05:48:35;98286.66;;;14.21;76.07
79028;BME280;68427;48.476;19.102;2023-08-12T05:51:00;98290.22;;;14.61;74.64
79028;BME280;68427;48.476;19.102;2023-08-12T05:53:26;98295.31;;;15.03;73.46
79028;BME280;68427;48.476;19.102;2023-08-12T05:55:52;98287.94;;;15.45;71.49
79028;BME280;68427;48.476;19.102;2023-08-12T05:58:19;98291.13;;;15.87;69.14
79028;BME280;68427;48.476;19.102;2023-08-12T06:00:45;98286.41;;;16.40;67.65
79028;BME280;68427;48.476;19.102;2023-08-12T06:03:11;98283.19;;;16.95;66.34
79028;BME280;68427;48.476;19.102;2023-08-12T06:05:37;98283.38;;;17.44;65.28
79028;BME280;68427;48.476;19.102;2023-08-12T06:08:03;98277.16;;;17.94;62.33
79028;BME280;68427;48.476;19.102;2023-08-12T06:10:29;98278.88;;;18.48;60.14
79028;BME280;68427;48.476;19.102;2023-08-12T06:12:55;98269.09;;;18.72;58.04
79028;BME280;68427;48.476;19.102;2023-08-12T06:15:22;98274.16;;;19.28;56.75
79028;BME280;68427;48.476;19.102;2023-08-12T06:17:48;98266.69;;;19.89;54.99
79028;BME280;68427;48.476;19.102;2023-08-12T06:20:13;98258.44;;;20.31;54.47
79028;BME280;68427;48.476;19.102;2023-08-12T06:22:39;98260.28;;;20.76;52.83
79028;BME280;68427;48.476;19.102;2023-08-12T06:25:05;98253.41;;;21.30;51.08
79028;BME280;68427;48.476;19.102;2023-08-12T06:27:31;98255.81;;;21.93;49.40
79028;BME280;68427;48.476;19.102;2023-08-12T06:29:57;98259.97;;;22.28;48.40
79028;BME280;68427;48.476;19.102;2023-08-12T06:32:24;98268.22;;;22.53;47.80
79028;BME280;68427;48.476;19.102;2023-08-12T06:34:50;98253.72;;;22.76;46.74
79028;BME280;68427;48.476;19.102;2023-08-12T06:37:15;98259.47;;;22.95;45.59
79028;BME280;68427;48.476;19.102;2023-08-12T06:39:41;98258.00;;;22.77;46.85
79028;BME280;68427;48.476;19.102;2023-08-12T06:42:07;98250.91;;;22.93;45.79
79028;BME280;68427;48.476;19.102;2023-08-12T06:44:32;98246.69;;;22.65;47.36
79028;BME280;68427;48.476;19.102;2023-08-12T06:46:58;98245.16;;;23.06;46.42
79028;BME280;68427;48.476;19.102;2023-08-12T06:49:25;98246.13;;;23.33;45.48
79028;BME280;68427;48.476;19.102;2023-08-12T06:51:50;98238.69;;;24.03;44.74
79028;BME280;68427;48.476;19.102;2023-08-12T06:54:16;98236.91;;;24.49;42.08
79028;BME280;68427;48.476;19.102;2023-08-12T06:56:42;98234.22;;;25.06;40.95
79028;BME280;68427;48.476;19.102;2023-08-12T06:59:08;98246.53;;;25.01;40.69
79028;BME280;68427;48.476;19.102;2023-08-12T07:01:34;98239.84;;;25.04;40.85
79028;BME280;68427;48.476;19.102;2023-08-12T07:03:59;98238.72;;;25.41;39.19
79028;BME280;68427;48.476;19.102;2023-08-12T07:06:26;98236.75;;;25.62;39.94
79028;BME280;68427;48.476;19.102;2023-08-12T07:08:52;98240.69;;;26.35;39.63
79028;BME280;68427;48.476;19.102;2023-08-12T07:11:18;98239.22;;;26.08;37.94
79028;BME280;68427;48.476;19.102;2023-08-12T07:13:43;98232.63;;;26.35;37.88
79028;BME280;68427;48.476;19.102;2023-08-12T07:16:11;98235.41;;;26.64;38.22
79028;BME280;68427;48.476;19.102;2023-08-12T07:18:37;98229.28;;;26.87;36.30
79028;BME280;68427;48.476;19.102;2023-08-12T07:21:03;98233.25;;;26.61;36.64
79028;BME280;68427;48.476;19.102;2023-08-12T07:23:30;98223.19;;;27.59;35.22
79028;BME280;68427;48.476;19.102;2023-08-12T07:25:56;98227.06;;;27.72;34.75
79028;BME280;68427;48.476;19.102;2023-08-12T07:28:22;98231.06;;;29.02;32.64
79028;BME280;68427;48.476;19.102;2023-08-12T07:30:47;98227.00;;;29.18;32.16
79028;BME280;68427;48.476;19.102;2023-08-12T07:33:13;98223.81;;;29.85;30.82
79028;BME280;68427;48.476;19.102;2023-08-12T07:35:39;98224.38;;;29.96;31.54
79028;BME280;68427;48.476;19.102;2023-08-12T07:38:05;98221.13;;;29.85;30.56
79028;BME280;68427;48.476;19.102;2023-08-12T07:40:32;98232.66;;;30.72;30.05
79028;BME280;68427;48.476;19.102;2023-08-12T07:42:58;98233.31;;;30.78;28.88
79028;BME280;68427;48.476;19.102;2023-08-12T07:45:24;98228.31;;;30.85;27.55
79028;BME280;68427;48.476;19.102;2023-08-12T07:47:49;98230.59;;;31.00;28.52
79028;BME280;68427;48.476;19.102;2023-08-12T07:50:15;98222.38;;;31.14;28.68
79028;BME280;68427;48.476;19.102;2023-08-12T07:52:41;98218.09;;;31.13;26.83
79028;BME280;68427;48.476;19.102;2023-08-12T07:55:07;98232.34;;;31.36;28.55
79028;BME280;68427;48.476;19.102;2023-08-12T07:57:34;98223.47;;;32.19;28.09
79028;BME280;68427;48.476;19.102;2023-08-12T08:00:00;98205.75;;;32.57;26.60
79028;BME280;68427;48.476;19.102;2023-08-12T08:02:25;98216.13;;;32.37;26.19
79028;BME280;68427;48.476;19.102;2023-08-12T08:04:51;98218.84;;;32.46;25.45
79028;BME280;68427;48.476;19.102;2023-08-12T08:07:17;98212.13;;;32.17;25.22
79028;BME280;68427;48.476;19.102;2023-08-12T08:09:43;98199.34;;;31.83;27.22
79028;BME280;68427;48.476;19.102;2023-08-12T08:12:10;98204.28;;;31.81;26.01
79028;BME280;68427;48.476;19.102;2023-08-12T08:14:37;98200.94;;;31.93;25.87
79028;BME280;68427;48.476;19.102;2023-08-12T08:17:03;98199.06;;;32.02;26.51
79028;BME280;68427;48.476;19.102;2023-08-12T08:19:29;98199.31;;;31.66;25.59
79028;BME280;68427;48.476;19.102;2023-08-12T08:21:54;98192.97;;;31.79;25.75
79028;BME280;68427;48.476;19.102;2023-08-12T08:24:20;98195.56;;;33.09;24.45
79028;BME280;68427;48.476;19.102;2023-08-12T08:26:46;98199.16;;;33.61;24.25
79028;BME280;68427;48.476;19.102;2023-08-12T08:29:12;98187.66;;;34.06;23.20
79028;BME280;68427;48.476;19.102;2023-08-12T08:31:39;98187.94;;;34.13;22.57
79028;BME280;68427;48.476;19.102;2023-08-12T08:34:06;98195.00;;;34.93;22.81
79028;BME280;68427;48.476;19.102;2023-08-12T08:36:31;98193.72;;;35.60;22.59
79028;BME280;68427;48.476;19.102;2023-08-12T08:38:57;98179.47;;;36.48;21.17
79028;BME280;68427;48.476;19.102;2023-08-12T08:41:23;98175.38;;;37.33;20.09
79028;BME280;68427;48.476;19.102;2023-08-12T08:43:50;98179.56;;;37.27;20.34
79028;BME280;68427;48.476;19.102;2023-08-12T08:46:18;98177.31;;;37.01;20.65
79028;BME280;68427;48.476;19.102;2023-08-12T08:48:46;98173.75;;;37.64;20.78
79028;BME280;68427;48.476;19.102;2023-08-12T08:51:14;98176.97;;;38.24;18.91
79028;BME280;68427;48.476;19.102;2023-08-12T08:53:40;98175.63;;;37.79;19.03
79028;BME280;68427;48.476;19.102;2023-08-12T08:56:07;98173.03;;;38.02;18.31
79028;BME280;68427;48.476;19.102;2023-08-12T08:58:37;98177.69;;;37.00;18.91
79028;BME280;68427;48.476;19.102;2023-08-12T09:01:03;98176.84;;;37.82;19.84
79028;BME280;68427;48.476;19.102;2023-08-12T09:03:32;98173.94;;;38.30;19.05
79028;BME280;68427;48.476;19.102;2023-08-12T09:05:59;98172.91;;;37.60;18.16
79028;BME280;68427;48.476;19.102;2023-08-12T09:08:26;98173.53;;;38.70;17.90
79028;BME280;68427;48.476;19.102;2023-08-12T09:10:53;98171.88;;;39.11;17.37
79028;BME280;68427;48.476;19.102;2023-08-12T09:13:20;98162.72;;;37.25;18.20
79028;BME280;68427;48.476;19.102;2023-08-12T09:15:46;98160.50;;;37.31;19.51
79028;BME280;68427;48.476;19.102;2023-08-12T09:18:11;98162.63;;;38.97;17.82
79028;BME280;68427;48.476;19.102;2023-08-12T09:20:38;98161.97;;;39.83;16.72
79028;BME280;68427;48.476;19.102;2023-08-12T09:23:05;98153.78;;;39.60;16.76
79028;BME280;68427;48.476;19.102;2023-08-12T09:25:34;98161.56;;;39.54;17.40
79028;BME280;68427;48.476;19.102;2023-08-12T09:28:00;98149.44;;;39.56;17.23
79028;BME280;68427;48.476;19.102;2023-08-12T09:30:28;98144.75;;;40.57;16.57
79028;BME280;68427;48.476;19.102;2023-08-12T09:33:02;98142.50;;;39.65;16.57
79028;BME280;68427;48.476;19.102;2023-08-12T09:35:33;98142.28;;;38.52;18.28
79028;BME280;68427;48.476;19.102;2023-08-12T09:38:01;98144.31;;;39.27;18.49
79028;BME280;68427;48.476;19.102;2023-08-12T09:40:30;98137.94;;;39.46;17.65
79028;BME280;68427;48.476;19.102;2023-08-12T09:42:56;98137.09;;;40.03;17.22
79028;BME280;68427;48.476;19.102;2023-08-12T09:45:23;98139.13;;;39.45;16.97
79028;BME280;68427;48.476;19.102;2023-08-12T09:47:49;98134.69;;;39.67;16.53
79028;BME280;68427;48.476;19.102;2023-08-12T09:50:15;98126.75;;;39.32;17.99
79028;BME280;68427;48.476;19.102;2023-08-12T09:52:40;98138.97;;;39.95;17.36
79028;BME280;68427;48.476;19.102;2023-08-12T09:55:08;98133.81;;;39.60;16.90
79028;BME280;68427;48.476;19.102;2023-08-12T09:57:36;98126.69;;;38.33;17.80
79028;BME280;68427;48.476;19.102;2023-08-12T10:00:08;98125.31;;;38.88;19.30
79028;BME280;68427;48.476;19.102;2023-08-12T10:02:39;98125.75;;;37.31;17.75
79028;BME280;68427;48.476;19.102;2023-08-12T10:05:06;98116.34;;;37.48;19.02
79028;BME280;68427;48.476;19.102;2023-08-12T10:07:36;98119.28;;;37.55;19.14
79028;BME280;68427;48.476;19.102;2023-08-12T10:10:01;98113.63;;;36.81;18.66
79028;BME280;68427;48.476;19.102;2023-08-12T10:12:28;98106.41;;;35.85;19.86
79028;BME280;68427;48.476;19.102;2023-08-12T10:14:56;98109.91;;;34.59;21.98
79028;BME280;68427;48.476;19.102;2023-08-12T10:17:24;98105.06;;;34.89;22.59
79028;BME280;68427;48.476;19.102;2023-08-12T10:19:54;98107.66;;;36.31;22.14
79028;BME280;68427;48.476;19.102;2023-08-12T10:22:21;98111.94;;;37.59;19.90
79028;BME280;68427;48.476;19.102;2023-08-12T10:24:47;98102.91;;;38.17;19.43
79028;BME280;68427;48.476;19.102;2023-08-12T10:27:15;98103.16;;;38.74;19.13
79028;BME280;68427;48.476;19.102;2023-08-12T10:29:42;98109.59;;;38.85;19.87
79028;BME280;68427;48.476;19.102;2023-08-12T10:32:09;98106.91;;;37.81;18.06
79028;BME280;68427;48.476;19.102;2023-08-12T10:34:35;98107.47;;;38.52;18.01
79028;BME280;68427;48.476;19.102;2023-08-12T10:37:02;98096.63;;;36.88;18.87
79028;BME280;68427;48.476;19.102;2023-08-12T10:39:28;98091.56;;;35.98;19.78
79028;BME280;68427;48.476;19.102;2023-08-12T10:41:54;98090.69;;;37.92;19.92
79028;BME280;68427;48.476;19.102;2023-08-12T10:44:21;98090.09;;;39.14;18.17
79028;BME280;68427;48.476;19.102;2023-08-12T10:46:51;98095.81;;;39.05;19.50
79028;BME280;68427;48.476;19.102;2023-08-12T10:49:20;98097.13;;;37.60;19.58
79028;BME280;68427;48.476;19.102;2023-08-12T10:51:51;98080.91;;;37.91;19.34
79028;BME280;68427;48.476;19.102;2023-08-12T10:54:20;98082.66;;;39.14;17.12
79028;BME280;68427;48.476;19.102;2023-08-12T10:57:08;98083.13;;;39.50;17.33
79028;BME280;68427;48.476;19.102;2023-08-12T10:59:56;98073.25;;;39.15;16.67
79028;BME280;68427;48.476;19.102;2023-08-12T11:02:26;98076.66;;;38.55;17.98
79028;BME280;68427;48.476;19.102;2023-08-12T11:04:55;98073.91;;;38.55;17.03
79028;BME280;68427;48.476;19.102;2023-08-12T11:07:22;98068.75;;;39.90;16.77
79028;BME280;68427;48.476;19.102;2023-08-12T11:09:53;98073.34;;;39.79;16.91
79028;BME280;68427;48.476;19.102;2023-08-12T11:12:28;98074.09;;;37.26;19.32
79028;BME280;68427;48.476;19.102;2023-08-12T11:14:54;98064.88;;;38.55;18.36
79028;BME280;68427;48.476;19.102;2023-08-12T11:17:20;98061.31;;;39.00;18.56
79028;BME280;68427;48.476;19.102;2023-08-12T11:19:55;98058.50;;;38.70;18.80
79028;BME280;68427;48.476;19.102;2023-08-12T11:22:21;98057.78;;;37.30;20.26
79028;BME280;68427;48.476;19.102;2023-08-12T11:24:48;98055.63;;;37.39;19.32
79028;BME280;68427;48.476;19.102;2023-08-12T11:27:14;98045.50;;;36.09;20.48
79028;BME280;68427;48.476;19.102;2023-08-12T11:29:39;98043.50;;;36.85;20.27
79028;BME280;68427;48.476;19.102;2023-08-12T11:32:06;98043.13;;;36.87;21.21
79028;BME280;68427;48.476;19.102;2023-08-12T11:34:32;98044.38;;;36.89;21.60
79028;BME280;68427;48.476;19.102;2023-08-12T11:37:00;98046.88;;;37.30;20.83
79028;BME280;68427;48.476;19.102;2023-08-12T11:39:26;98036.94;;;37.99;20.09
79028;BME280;68427;48.476;19.102;2023-08-12T11:41:52;98042.84;;;37.82;20.05
79028;BME280;68427;48.476;19.102;2023-08-12T11:44:21;98029.50;;;37.57;19.13
79028;BME280;68427;48.476;19.102;2023-08-12T11:46:47;98024.25;;;37.91;20.29
79028;BME280;68427;48.476;19.102;2023-08-12T11:49:13;98026.81;;;37.61;20.62
79028;BME280;68427;48.476;19.102;2023-08-12T11:51:38;98018.56;;;36.87;20.81
79028;BME280;68427;48.476;19.102;2023-08-12T11:54:06;98015.50;;;35.65;20.57
79028;BME280;68427;48.476;19.102;2023-08-12T11:56:32;98017.66;;;36.03;21.74
79028;BME280;68427;48.476;19.102;2023-08-12T11:58:57;98011.00;;;36.80;20.91
79028;BME280;68427;48.476;19.102;2023-08-12T12:01:24;98008.38;;;36.36;21.28
79028;BME280;68427;48.476;19.102;2023-08-12T12:03:51;98006.28;;;36.13;22.45
79028;BME280;68427;48.476;19.102;2023-08-12T12:06:16;98000.50;;;35.31;22.22
79028;BME280;68427;48.476;19.102;2023-08-12T12:08:44;97999.44;;;34.82;23.20
79028;BME280;68427;48.476;19.102;2023-08-12T12:11:11;97988.59;;;35.23;23.53
79028;BME280;68427;48.476;19.102;2023-08-12T12:13:39;97994.41;;;35.49;24.38
79028;BME280;68427;48.476;19.102;2023-08-12T12:16:10;97998.63;;;33.87;24.98
79028;BME280;68427;48.476;19.102;2023-08-12T12:18:36;97995.72;;;33.59;26.86
79028;BME280;68427;48.476;19.102;2023-08-12T12:21:02;97986.06;;;33.95;25.55
79028;BME280;68427;48.476;19.102;2023-08-12T12:23:28;97993.53;;;33.31;26.44
79028;BME280;68427;48.476;19.102;2023-08-12T12:25:57;97985.72;;;33.09;26.74
79028;BME280;68427;48.476;19.102;2023-08-12T12:28:25;97983.13;;;32.83;27.57
79028;BME280;68427;48.476;19.102;2023-08-12T12:30:50;97983.13;;;33.12;28.51
79028;BME280;68427;48.476;19.102;2023-08-12T12:33:16;97977.06;;;32.18;28.22
79028;BME280;68427;48.476;19.102;2023-08-12T12:35:42;97963.06;;;32.54;27.88
79028;BME280;68427;48.476;19.102;2023-08-12T12:38:08;97982.09;;;31.98;29.03
79028;BME280;68427;48.476;19.102;2023-08-12T12:40:34;97971.91;;;31.69;29.68
79028;BME280;68427;48.476;19.102;2023-08-12T12:42:59;97974.50;;;31.39;29.42
79028;BME280;68427;48.476;19.102;2023-08-12T12:45:26;97973.19;;;31.37;30.05
79028;BME280;68427;48.476;19.102;2023-08-12T12:47:52;97971.13;;;31.16;31.12
79028;BME280;68427;48.476;19.102;2023-08-12T12:50:18;97963.81;;;31.26;30.33